22 | 05 | 2019

Daten Vortag

Wetterdaten von 10m Höhe gemessen, Station2

Datum / Zeit Intervall min Luftfeuchte % Temperatur °C absolut Luftdruck hPa Wind m/s Windbö m/s Richtung Relative Luftdruck hPa Taupunkt °C Windchill °C Niederschlag mm
21-05-2019 00:12 5 99 14.2 1001.4 6.1 8.6 N 1004.3 14.1 14.2 0.0
21-05-2019 00:17 5 99 14.0 1001.6 8.6 9.7 N 1004.5 13.9 12.3 0.0
21-05-2019 00:22 5 99 13.9 1001.5 5.0 8.6 N 1004.4 13.8 13.9 0.0
21-05-2019 00:27 5 99 13.8 1001.3 3.6 6.1 N 1004.2 13.7 13.8 0.0
21-05-2019 00:32 5 99 13.7 1001.4 2.5 5.0 NE 1004.3 13.6 13.7 0.0
21-05-2019 00:37 5 99 13.6 1001.5 2.5 5.0 N 1004.4 13.5 13.6 0.0
21-05-2019 00:42 5 99 13.6 1001.6 3.6 8.6 N 1004.5 13.5 13.6 0.0
21-05-2019 00:47 5 99 13.6 1001.6 5.0 7.2 N 1004.5 13.5 13.6 0.0
21-05-2019 00:52 5 99 13.6 1001.6 5.0 8.6 N 1004.5 13.5 13.6 0.0
21-05-2019 00:57 5 99 13.6 1001.6 5.0 7.2 N 1004.5 13.5 13.6 0.0
21-05-2019 01:02 5 99 13.6 1001.7 3.6 6.1 NNW 1004.6 13.5 13.6 0.0
21-05-2019 01:07 5 99 13.7 1001.6 5.0 7.2 NW 1004.5 13.6 13.7 0.0
21-05-2019 01:12 5 99 13.7 1001.7 5.0 7.2 NW 1004.6 13.6 13.7 0.0
21-05-2019 01:17 5 99 13.7 1001.7 7.2 9.7 N 1004.6 13.6 12.8 0.0
21-05-2019 01:22 5 99 13.8 1001.6 7.2 8.6 NNW 1004.5 13.7 12.9 0.0
21-05-2019 01:27 5 99 13.8 1001.6 5.0 7.2 NE 1004.5 13.7 13.8 0.0
21-05-2019 01:32 5 99 14.0 1001.6 6.1 7.2 N 1004.5 13.9 14.0 0.0
21-05-2019 01:37 5 99 14.0 1001.5 5.0 6.1 N 1004.4 13.9 14.0 0.0
21-05-2019 01:42 5 99 14.1 1001.5 3.6 7.2 NW 1004.4 14.0 14.1 0.0
21-05-2019 01:47 5 99 14.2 1001.5 3.6 6.1 N 1004.4 14.1 14.2 0.0
21-05-2019 01:52 5 99 14.3 1001.6 2.5 3.6 N 1004.5 14.2 14.3 0.0
21-05-2019 01:57 5 99 14.3 1001.5 0.0 1.1 E 1004.4 14.2 14.3 0.0
21-05-2019 02:02 5 99 14.3 1001.5 0.0 0.0 E 1004.4 14.2 14.3 0.0
21-05-2019 02:07 5 99 14.3 1001.3 2.5 3.6 NW 1004.2 14.2 14.3 0.0
21-05-2019 02:12 5 99 14.4 1001.5 2.5 5.0 NW 1004.4 14.3 14.4 0.0
21-05-2019 02:17 5 99 14.4 1001.4 1.1 2.5 NW 1004.3 14.3 14.4 0.0
21-05-2019 02:22 5 99 14.4 1001.4 1.1 3.6 NW 1004.3 14.3 14.4 0.0
21-05-2019 02:27 5 99 14.5 1001.3 2.5 3.6 NW 1004.2 14.4 14.5 0.0
21-05-2019 02:32 5 99 14.5 1001.4 2.5 3.6 NW 1004.3 14.4 14.5 0.0
21-05-2019 02:37 5 99 14.5 1001.4 3.6 5.0 N 1004.3 14.4 14.5 0.0
21-05-2019 02:42 5 99 14.5 1001.3 2.5 3.6 N 1004.2 14.4 14.5 0.0
21-05-2019 02:47 5 99 14.6 1001.5 1.1 5.0 NNW 1004.4 14.5 14.6 0.0
21-05-2019 02:52 5 99 14.4 1001.6 5.0 6.1 NW 1004.5 14.3 14.4 0.0
21-05-2019 02:57 5 99 14.4 1001.7 6.1 8.6 NNW 1004.6 14.3 14.4 0.0
21-05-2019 03:02 5 99 14.4 1001.5 7.2 9.7 NW 1004.4 14.3 13.5 0.0
21-05-2019 03:07 5 99 14.2 1001.5 6.1 8.6 N 1004.4 14.1 14.2 0.0
21-05-2019 03:12 5 99 14.0 1001.6 8.6 11.2 NWW 1004.5 13.9 12.3 0.0
21-05-2019 03:17 5 99 13.9 1001.4 6.1 8.6 N 1004.3 13.8 13.9 0.0
21-05-2019 03:22 5 99 13.8 1001.6 8.6 12.2 NNW 1004.5 13.7 12.1 0.0
21-05-2019 03:27 5 99 13.8 1001.5 7.2 9.7 N 1004.4 13.7 12.9 0.0
21-05-2019 03:32 5 99 13.8 1001.5 7.2 11.2 N 1004.4 13.7 12.9 0.0
21-05-2019 03:37 5 99 13.6 1001.5 6.1 8.6 N 1004.4 13.5 13.6 0.0
21-05-2019 03:42 5 99 13.6 1001.6 7.2 9.7 N 1004.5 13.5 12.7 0.0
21-05-2019 03:47 5 99 13.5 1001.5 8.6 11.2 NW 1004.4 13.4 11.8 0.0
21-05-2019 03:52 5 99 13.4 1001.5 6.1 9.7 NW 1004.4 13.3 13.4 0.0
21-05-2019 03:57 5 99 13.3 1001.5 9.7 12.2 N 1004.4 13.2 11.1 0.0
21-05-2019 04:02 5 99 13.2 1001.7 7.2 9.7 N 1004.6 13.1 12.2 0.0
21-05-2019 04:07 5 99 13.2 1001.7 7.2 9.7 N 1004.6 13.1 12.2 0.0
21-05-2019 04:13 6 99 13.1 1001.5 7.2 9.7 NWW 1004.4 13.0 12.1 0.0
21-05-2019 04:18 5 99 13.0 1001.6 6.1 11.2 N 1004.5 12.9 13.0 0.0
21-05-2019 04:23 5 97 12.9 1001.6 6.1 7.2 N 1004.5 12.5 12.9 0.0
21-05-2019 04:28 5 97 12.9 1001.5 9.7 12.2 NE 1004.4 12.5 10.6 0.0
21-05-2019 04:33 5 97 12.8 1001.5 8.6 11.2 N 1004.4 12.4 11.0 0.0
21-05-2019 04:38 5 97 12.8 1001.3 5.0 8.6 N 1004.2 12.4 12.8 0.0
21-05-2019 04:43 5 97 12.7 1001.4 2.5 6.1 N 1004.3 12.3 12.7 0.0
21-05-2019 04:48 5 97 12.7 1001.2 6.1 9.7 N 1004.1 12.3 12.7 0.0
21-05-2019 04:53 5 97 12.7 1001.3 6.1 8.6 NE 1004.2 12.3 12.7 0.0
21-05-2019 04:58 5 97 12.7 1001.2 2.5 5.0 N 1004.1 12.3 12.7 0.0
21-05-2019 05:03 5 97 12.7 1001.4 5.0 6.1 N 1004.3 12.3 12.7 0.0
21-05-2019 05:08 5 97 12.7 1001.4 2.5 3.6 N 1004.3 12.3 12.7 0.0
21-05-2019 05:13 5 97 12.8 1001.3 2.5 3.6 N 1004.2 12.4 12.8 0.0
21-05-2019 05:18 5 97 12.8 1001.4 2.5 5.0 N 1004.3 12.4 12.8 0.0
21-05-2019 05:23 5 97 12.8 1001.6 0.0 2.5 NE 1004.5 12.4 12.8 0.0
21-05-2019 05:28 5 97 12.8 1001.3 3.6 6.1 NE 1004.2 12.4 12.8 0.0
21-05-2019 05:33 5 97 12.8 1001.4 2.5 5.0 NNE 1004.3 12.4 12.8 0.0
21-05-2019 05:38 5 97 12.9 1001.5 1.1 3.6 NE 1004.4 12.5 12.9 0.0
21-05-2019 05:43 5 97 12.9 1001.5 0.0 0.0 N 1004.4 12.5 12.9 0.0
21-05-2019 05:48 5 97 12.9 1001.6 1.1 2.5 N 1004.5 12.5 12.9 0.0
21-05-2019 05:53 5 97 12.9 1001.5 0.0 1.1 N 1004.4 12.5 12.9 0.0
21-05-2019 05:58 5 97 12.9 1001.5 1.1 2.5 N 1004.4 12.5 12.9 0.0
21-05-2019 06:03 5 97 12.9 1001.5 3.6 5.0 N 1004.4 12.5 12.9 0.0
21-05-2019 06:08 5 97 12.9 1001.6 3.6 6.1 N 1004.5 12.5 12.9 0.0
21-05-2019 06:13 5 97 12.9 1001.6 2.5 5.0 NW 1004.5 12.5 12.9 0.0
21-05-2019 06:18 5 97 12.9 1001.7 5.0 6.1 NW 1004.6 12.5 12.9 0.0
21-05-2019 06:23 5 97 12.9 1001.7 5.0 6.1 NW 1004.6 12.5 12.9 0.0
21-05-2019 06:28 5 99 13.0 1001.7 3.6 5.0 N 1004.6 12.9 13.0 0.0
21-05-2019 06:33 5 97 12.9 1001.8 5.0 6.1 NW 1004.7 12.5 12.9 0.0
21-05-2019 06:38 5 99 13.0 1001.6 5.0 7.2 NW 1004.5 12.9 13.0 0.0
21-05-2019 06:43 5 97 12.9 1001.7 6.1 8.6 NW 1004.6 12.5 12.9 0.0
21-05-2019 06:48 5 97 12.9 1001.7 5.0 6.1 N 1004.6 12.5 12.9 0.0
21-05-2019 06:53 5 97 12.9 1001.9 6.1 9.7 N 1004.8 12.5 12.9 0.0
21-05-2019 06:58 5 97 12.8 1001.6 6.1 8.6 N 1004.5 12.4 12.8 0.0
21-05-2019 07:03 5 97 12.9 1001.7 5.0 7.2 N 1004.6 12.5 12.9 0.0
21-05-2019 07:08 5 97 12.9 1001.6 5.0 7.2 N 1004.5 12.5 12.9 0.0
21-05-2019 07:13 5 99 13.0 1001.8 1.1 3.6 NNE 1004.7 12.9 13.0 0.0
21-05-2019 07:18 5 99 13.1 1001.7 0.0 2.5 N 1004.6 13.0 13.1 0.0
21-05-2019 07:23 5 99 13.2 1001.7 0.0 1.1 NW 1004.6 13.1 13.2 0.0
21-05-2019 07:28 5 99 13.3 1001.7 0.0 1.1 NW 1004.6 13.2 13.3 0.0
21-05-2019 07:33 5 99 13.3 1001.9 0.0 1.1 N 1004.8 13.2 13.3 0.0
21-05-2019 07:38 5 99 13.3 1001.8 2.5 3.6 NWW 1004.7 13.2 13.3 0.0
21-05-2019 07:43 5 99 13.4 1002.0 0.0 0.0 N 1004.9 13.3 13.4 0.0
21-05-2019 07:48 5 99 13.5 1001.9 1.1 2.5 N 1004.8 13.4 13.5 0.0
21-05-2019 07:53 5 99 13.7 1001.9 0.0 0.0 N 1004.8 13.6 13.7 0.0
21-05-2019 07:58 5 99 13.7 1001.9 3.6 6.1 NWW 1004.8 13.6 13.7 0.0
21-05-2019 08:03 5 99 13.6 1001.8 7.2 8.6 NNW 1004.7 13.5 12.7 0.0
21-05-2019 08:08 5 99 13.5 1001.9 5.0 6.1 NW 1004.8 13.4 13.5 0.0
21-05-2019 08:13 5 99 13.6 1001.8 3.6 5.0 NW 1004.7 13.5 13.6 0.0
21-05-2019 08:18 5 99 13.8 1002.0 3.6 6.1 N 1004.9 13.7 13.8 0.0
21-05-2019 08:23 5 99 13.8 1002.0 1.1 2.5 NW 1004.9 13.7 13.8 0.0
21-05-2019 08:28 5 99 14.0 1002.1 2.5 3.6 NNW 1005.0 13.9 14.0 0.0
21-05-2019 08:33 5 99 13.8 1002.1 2.5 3.6 NW 1005.0 13.7 13.8 0.0
21-05-2019 08:38 5 99 13.8 1002.0 5.0 6.1 NW 1004.9 13.7 13.8 0.0
21-05-2019 08:43 5 99 13.8 1002.1 1.1 3.6 N 1005.0 13.7 13.8 0.0
21-05-2019 08:48 5 99 14.0 1002.1 2.5 5.0 N 1005.0 13.9 14.0 0.0
21-05-2019 08:53 5 99 14.3 1002.2 2.5 3.6 NW 1005.1 14.2 14.3 0.0
21-05-2019 08:58 5 99 14.3 1002.2 2.5 3.6 NWW 1005.1 14.2 14.3 0.0
21-05-2019 09:03 5 99 14.3 1002.2 1.1 2.5 N 1005.1 14.2 14.3 0.0
21-05-2019 09:08 5 99 14.3 1002.3 2.5 5.0 NW 1005.2 14.2 14.3 0.0
21-05-2019 09:13 5 99 14.8 1002.2 1.1 3.6 N 1005.1 14.7 14.8 0.0
21-05-2019 09:18 5 99 15.1 1002.6 1.1 3.6 N 1005.5 15.0 15.1 0.0
21-05-2019 09:23 5 99 15.0 1002.5 0.0 0.0 NW 1005.4 14.9 15.0 0.0
21-05-2019 09:28 5 99 15.3 1002.6 3.6 5.0 NW 1005.5 15.2 15.3 0.0
21-05-2019 09:33 5 99 14.9 1002.5 2.5 3.6 SW 1005.4 14.8 14.9 0.0
21-05-2019 09:38 5 99 14.9 1002.6 2.5 5.0 W 1005.5 14.8 14.9 0.0
21-05-2019 09:43 5 99 14.9 1002.6 0.0 1.1 SW 1005.5 14.8 14.9 0.0
21-05-2019 09:48 5 98 15.2 1002.6 0.0 0.0 SW 1005.5 14.9 15.2 0.0
21-05-2019 09:53 5 98 15.3 1002.6 0.0 0.0 SW 1005.5 15.0 15.3 0.0
21-05-2019 09:58 5 99 15.9 1002.5 1.1 2.5 NW 1005.4 15.8 15.9 0.0
21-05-2019 10:03 5 97 16.1 1002.7 2.5 3.6 N 1005.6 15.6 16.1 0.0
21-05-2019 10:08 5 93 16.2 1002.8 1.1 2.5 E 1005.7 15.1 16.2 0.0
21-05-2019 10:13 5 92 16.1 1002.8 2.5 3.6 N 1005.7 14.8 16.1 0.0
21-05-2019 10:18 5 92 16.0 1002.8 0.0 1.1 N 1005.7 14.7 16.0 0.0
21-05-2019 10:23 5 92 16.2 1002.9 2.5 3.6 NW 1005.8 14.9 16.2 0.0
21-05-2019 10:28 5 93 16.6 1002.7 1.1 2.5 N 1005.6 15.5 16.6 0.0
21-05-2019 10:33 5 93 16.8 1002.8 0.0 2.5 SW 1005.7 15.7 16.8 0.0
21-05-2019 10:38 5 92 16.7 1002.8 0.0 1.1 SW 1005.7 15.4 16.7 0.0
21-05-2019 10:43 5 91 17.0 1002.8 1.1 3.6 N 1005.7 15.5 17.0 0.0
21-05-2019 10:48 5 90 16.8 1002.8 6.1 8.6 SW 1005.7 15.2 16.8 0.0
21-05-2019 10:53 5 91 16.3 1002.8 1.1 3.6 S 1005.7 14.8 16.3 0.0
21-05-2019 10:58 5 93 16.4 1002.9 5.0 6.1 W 1005.8 15.3 16.4 0.0
21-05-2019 11:03 5 93 16.5 1002.9 0.0 2.5 W 1005.8 15.4 16.5 0.0
21-05-2019 11:08 5 93 16.5 1003.0 3.6 5.0 NW 1005.9 15.4 16.5 0.0
21-05-2019 11:13 5 93 16.5 1002.9 0.0 1.1 N 1005.8 15.4 16.5 0.0
21-05-2019 11:18 5 93 16.7 1003.2 3.6 6.1 NW 1006.1 15.6 16.7 0.0
21-05-2019 11:23 5 93 16.5 1003.1 2.5 3.6 SW 1006.0 15.4 16.5 0.0
21-05-2019 11:28 5 93 16.6 1003.3 6.1 8.6 W 1006.2 15.5 16.6 0.0
21-05-2019 11:33 5 93 16.4 1003.1 6.1 8.6 W 1006.0 15.3 16.4 0.0
21-05-2019 11:38 5 93 16.3 1003.3 2.5 3.6 NWW 1006.2 15.2 16.3 0.0
21-05-2019 11:43 5 94 16.3 1003.3 5.0 7.2 SW 1006.2 15.4 16.3 0.0
21-05-2019 11:48 5 94 16.4 1003.4 1.1 2.5 SW 1006.3 15.5 16.4 0.0
21-05-2019 11:53 5 94 16.7 1003.5 5.0 8.6 NW 1006.4 15.7 16.7 0.0
21-05-2019 11:58 5 94 16.7 1003.2 5.0 7.2 W 1006.1 15.7 16.7 0.0
21-05-2019 12:03 5 93 16.8 1003.3 2.5 5.0 NW 1006.2 15.7 16.8 0.0
21-05-2019 12:08 5 93 16.9 1003.4 2.5 5.0 W 1006.3 15.8 16.9 0.0
21-05-2019 12:13 5 93 16.9 1003.2 8.6 9.7 W 1006.1 15.8 15.5 0.0
21-05-2019 12:18 5 93 16.7 1003.4 5.0 7.2 NW 1006.3 15.6 16.7 0.0
21-05-2019 12:23 5 93 16.6 1003.4 8.6 12.2 NW 1006.3 15.5 15.2 0.0
21-05-2019 12:28 5 94 16.1 1003.4 11.2 13.3 NW 1006.3 15.2 13.7 0.0
21-05-2019 12:33 5 96 15.9 1003.6 9.7 12.2 W 1006.5 15.3 14.0 0.0
21-05-2019 12:38 5 97 15.8 1003.7 8.6 12.2 W 1006.6 15.3 14.3 0.0
21-05-2019 12:43 5 98 15.7 1003.6 7.2 11.2 W 1006.5 15.4 14.9 0.0
21-05-2019 12:48 5 98 15.5 1003.7 11.2 13.3 NW 1006.6 15.2 13.0 0.0
21-05-2019 12:53 5 98 15.5 1003.8 8.6 11.2 NW 1006.7 15.2 14.0 0.0
21-05-2019 12:58 5 99 15.3 1003.8 8.6 11.2 NW 1006.7 15.2 13.8 0.0
21-05-2019 13:03 5 99 15.4 1003.8 9.7 12.2 NWW 1006.7 15.3 13.4 0.0
21-05-2019 13:08 5 99 15.3 1003.9 9.7 12.2 W 1006.8 15.2 13.3 0.0
21-05-2019 13:13 5 99 15.4 1004.0 8.6 12.2 W 1006.9 15.3 13.9 0.0
21-05-2019 13:18 5 99 15.4 1004.0 8.6 11.2 W 1006.9 15.3 13.9 0.0
21-05-2019 13:23 5 99 15.5 1003.8 8.6 11.2 W 1006.7 15.4 14.0 0.0
21-05-2019 13:28 5 98 15.6 1003.9 11.2 13.3 NW 1006.8 15.3 13.1 0.0
21-05-2019 13:33 5 98 15.6 1004.0 9.7 12.2 W 1006.9 15.3 13.6 0.0
21-05-2019 13:38 5 98 15.4 1003.9 7.2 9.7 NW 1006.8 15.1 14.5 0.0
21-05-2019 13:43 5 98 15.3 1004.1 6.1 9.7 NW 1007.0 15.0 15.3 0.0
21-05-2019 13:48 5 98 15.3 1004.0 7.2 11.2 NWW 1006.9 15.0 14.4 0.0
21-05-2019 13:53 5 98 15.4 1004.0 7.2 9.7 NWW 1006.9 15.1 14.5 0.0
21-05-2019 13:58 5 99 15.4 1004.1 9.7 12.2 W 1007.0 15.3 13.4 0.0
21-05-2019 14:03 5 99 15.4 1004.0 7.2 11.2 W 1006.9 15.3 14.5 0.0
21-05-2019 14:08 5 99 15.5 1004.0 6.1 11.2 SW 1006.9 15.4 15.5 0.0
21-05-2019 14:13 5 99 15.6 1004.1 9.7 12.2 NW 1007.0 15.5 13.6 0.0
21-05-2019 14:18 5 99 15.6 1004.2 8.6 9.7 W 1007.1 15.5 14.1 0.0
21-05-2019 14:23 5 99 15.7 1004.2 8.6 9.7 NW 1007.1 15.6 14.2 0.0
21-05-2019 14:28 5 98 15.6 1004.2 8.6 11.2 W 1007.1 15.3 14.1 0.0
21-05-2019 14:33 5 98 15.4 1004.4 7.2 9.7 W 1007.3 15.1 14.5 0.0
21-05-2019 14:38 5 99 15.5 1004.3 7.2 9.7 W 1007.2 15.4 14.6 0.0
21-05-2019 14:43 5 99 15.5 1004.4 8.6 11.2 NW 1007.3 15.4 14.0 0.0
21-05-2019 14:48 5 99 15.4 1004.4 6.1 9.7 NW 1007.3 15.3 15.4 0.0
21-05-2019 14:53 5 99 15.3 1004.5 6.1 8.6 W 1007.4 15.2 15.3 0.0
21-05-2019 14:58 5 99 15.3 1004.6 6.1 8.6 NW 1007.5 15.2 15.3 0.0
21-05-2019 15:03 5 99 15.3 1004.6 5.0 6.1 W 1007.5 15.2 15.3 0.0
21-05-2019 15:08 5 99 15.3 1004.6 7.2 9.7 W 1007.5 15.2 14.4 0.0
21-05-2019 15:13 5 99 15.5 1004.5 8.6 9.7 W 1007.4 15.4 14.0 0.0
21-05-2019 15:18 5 99 15.5 1004.4 5.0 7.2 W 1007.3 15.4 15.5 0.0
21-05-2019 15:23 5 99 15.5 1004.6 7.2 9.7 NW 1007.5 15.4 14.6 0.0
21-05-2019 15:28 5 99 15.5 1004.7 7.2 9.7 W 1007.6 15.4 14.6 0.0
21-05-2019 15:33 5 99 15.7 1004.6 8.6 9.7 NW 1007.5 15.6 14.2 0.0
21-05-2019 15:38 5 99 15.7 1004.7 6.1 8.6 NW 1007.6 15.6 15.7 0.0
21-05-2019 15:43 5 99 15.8 1004.6 6.1 8.6 W 1007.5 15.7 15.8 0.0
21-05-2019 15:48 5 99 15.8 1004.6 9.7 12.2 NW 1007.5 15.7 13.9 0.0
21-05-2019 15:53 5 98 15.9 1004.8 8.6 11.2 W 1007.7 15.6 14.4 0.0
21-05-2019 15:58 5 98 15.9 1004.6 7.2 11.2 W 1007.5 15.6 15.1 0.0
21-05-2019 16:03 5 97 16.0 1004.7 8.6 13.3 NWW 1007.6 15.5 14.5 0.0
21-05-2019 16:08 5 96 16.0 1004.8 7.2 9.7 W 1007.7 15.4 15.2 0.0
21-05-2019 16:13 5 97 16.0 1004.7 12.2 14.8 W 1007.6 15.5 13.2 0.0
21-05-2019 16:18 5 97 16.0 1004.6 11.2 12.2 NW 1007.5 15.5 13.6 0.0
21-05-2019 16:23 5 97 16.0 1004.6 11.2 13.3 NW 1007.5 15.5 13.6 0.0
21-05-2019 16:28 5 98 16.0 1004.5 9.7 13.3 W 1007.4 15.7 14.1 0.0
21-05-2019 16:33 5 98 16.0 1004.7 13.3 15.8 NW 1007.6 15.7 12.9 0.0
21-05-2019 16:38 5 98 16.1 1004.5 7.2 9.7 NWW 1007.4 15.8 15.3 0.0
21-05-2019 16:43 5 98 16.2 1004.5 9.7 13.3 NW 1007.4 15.9 14.3 0.0
21-05-2019 16:48 5 97 16.3 1004.4 11.2 12.2 W 1007.3 15.8 13.9 0.0
21-05-2019 16:53 5 97 16.5 1004.4 11.2 13.3 W 1007.3 16.0 14.1 0.0
21-05-2019 16:58 5 96 16.3 1004.4 8.6 11.2 W 1007.3 15.7 14.8 0.0
21-05-2019 17:03 5 96 16.4 1004.2 8.6 12.2 W 1007.1 15.8 15.0 0.0
21-05-2019 17:08 5 96 16.6 1004.3 11.2 13.3 NW 1007.2 16.0 14.2 0.0
21-05-2019 17:13 5 95 16.4 1004.3 9.7 11.2 NWW 1007.2 15.6 14.5 0.0
21-05-2019 17:18 5 95 16.3 1004.3 13.3 15.8 W 1007.2 15.5 13.2 0.0
21-05-2019 17:23 5 95 16.3 1004.6 11.2 13.3 NW 1007.5 15.5 13.9 0.0
21-05-2019 17:28 5 95 16.2 1004.3 13.3 15.8 NW 1007.2 15.4 13.1 0.0
21-05-2019 17:33 5 96 16.2 1004.3 9.7 12.2 W 1007.2 15.6 14.3 0.0
21-05-2019 17:38 5 96 16.3 1004.3 9.7 12.2 W 1007.2 15.7 14.4 0.0
21-05-2019 17:43 5 96 16.3 1004.4 8.6 12.2 W 1007.3 15.7 14.8 0.0
21-05-2019 17:48 5 96 16.1 1004.4 11.2 13.3 NW 1007.3 15.5 13.7 0.0
21-05-2019 17:53 5 97 16.1 1004.5 8.6 12.2 NWW 1007.4 15.6 14.6 0.0
21-05-2019 17:58 5 97 16.1 1004.5 6.1 9.7 NW 1007.4 15.6 16.1 0.0
21-05-2019 18:03 5 97 16.1 1004.6 6.1 9.7 NW 1007.5 15.6 16.1 0.0
21-05-2019 18:08 5 98 15.9 1004.7 6.1 11.2 NW 1007.6 15.6 15.9 0.0
21-05-2019 18:13 5 98 15.9 1004.5 8.6 12.2 NWW 1007.4 15.6 14.4 0.0
21-05-2019 18:18 5 98 15.8 1004.5 12.2 14.8 W 1007.4 15.5 13.0 0.0
21-05-2019 18:23 5 98 15.8 1004.6 7.2 12.2 NW 1007.5 15.5 15.0 0.0
21-05-2019 18:28 5 99 15.8 1004.7 5.0 9.7 W 1007.6 15.7 15.8 0.0
21-05-2019 18:33 5 99 15.8 1004.6 9.7 11.2 W 1007.5 15.7 13.9 0.0
21-05-2019 18:38 5 98 15.7 1004.7 7.2 9.7 W 1007.6 15.4 14.9 0.0
21-05-2019 18:43 5 99 15.7 1004.7 7.2 9.7 NW 1007.6 15.6 14.9 0.0
21-05-2019 18:48 5 99 15.8 1004.7 9.7 12.2 W 1007.6 15.7 13.9 0.0
21-05-2019 18:53 5 99 15.8 1004.7 8.6 11.2 W 1007.6 15.7 14.3 0.0
21-05-2019 18:58 5 99 15.7 1004.8 11.2 13.3 W 1007.7 15.6 13.2 0.0
21-05-2019 19:03 5 99 15.7 1004.8 8.6 9.7 W 1007.7 15.6 14.2 0.0
21-05-2019 19:08 5 99 15.7 1004.8 9.7 11.2 NW 1007.7 15.6 13.8 0.0
21-05-2019 19:13 5 99 15.6 1004.9 8.6 11.2 W 1007.8 15.5 14.1 0.0
21-05-2019 19:18 5 99 15.7 1004.9 5.0 8.6 NW 1007.8 15.6 15.7 0.0
21-05-2019 19:23 5 99 15.6 1005.0 7.2 9.7 W 1007.9 15.5 14.7 0.0
21-05-2019 19:28 5 99 15.6 1005.0 7.2 8.6 NW 1007.9 15.5 14.7 0.0
21-05-2019 19:33 5 99 15.6 1005.1 7.2 9.7 NW 1008.0 15.5 14.7 0.0
21-05-2019 19:38 5 99 15.6 1005.1 9.7 13.3 W 1008.0 15.5 13.6 0.0
21-05-2019 19:43 5 99 15.5 1005.0 7.2 8.6 W 1007.9 15.4 14.6 0.0
21-05-2019 19:48 5 99 15.4 1005.2 7.2 9.7 W 1008.1 15.3 14.5 0.0
21-05-2019 19:53 5 99 15.5 1005.2 13.3 15.8 NW 1008.1 15.4 12.3 0.0
21-05-2019 19:58 5 99 15.4 1005.3 7.2 9.7 W 1008.2 15.3 14.5 0.0
21-05-2019 20:03 5 99 15.4 1005.4 7.2 8.6 W 1008.3 15.3 14.5 0.0
21-05-2019 20:08 5 99 15.3 1005.2 8.6 11.2 W 1008.1 15.2 13.8 0.0
21-05-2019 20:13 5 99 15.4 1005.3 6.1 7.2 W 1008.2 15.3 15.4 0.0
21-05-2019 20:18 5 99 15.4 1005.4 5.0 7.2 NWW 1008.3 15.3 15.4 0.0
21-05-2019 20:23 5 99 15.4 1005.4 6.1 7.2 W 1008.3 15.3 15.4 0.0
21-05-2019 20:28 5 99 15.4 1005.5 6.1 8.6 W 1008.4 15.3 15.4 0.0
21-05-2019 20:33 5 99 15.4 1005.4 6.1 7.2 W 1008.3 15.3 15.4 0.0
21-05-2019 20:38 5 99 15.4 1005.4 5.0 7.2 W 1008.3 15.3 15.4 0.0
21-05-2019 20:43 5 99 15.4 1005.5 3.6 5.0 W 1008.4 15.3 15.4 0.0
21-05-2019 20:48 5 99 15.4 1005.7 5.0 6.1 W 1008.6 15.3 15.4 0.0
21-05-2019 20:53 5 99 15.4 1005.6 5.0 7.2 W 1008.5 15.3 15.4 0.0
21-05-2019 20:58 5 99 15.4 1005.6 6.1 7.2 W 1008.5 15.3 15.4 0.0
21-05-2019 21:03 5 99 15.4 1005.7 3.6 7.2 W 1008.6 15.3 15.4 0.0
21-05-2019 21:08 5 99 15.4 1005.7 5.0 7.2 W 1008.6 15.3 15.4 0.0
21-05-2019 21:13 5 99 15.3 1005.7 6.1 7.2 W 1008.6 15.2 15.3 0.0
21-05-2019 21:18 5 99 15.3 1005.9 1.1 3.6 W 1008.8 15.2 15.3 0.0
21-05-2019 21:23 5 99 15.3 1006.0 2.5 3.6 W 1008.9 15.2 15.3 0.0
21-05-2019 21:28 5 99 15.3 1006.1 6.1 6.1 W 1009.0 15.2 15.3 0.0
21-05-2019 21:33 5 99 15.3 1006.1 5.0 6.1 NW 1009.0 15.2 15.3 0.0
21-05-2019 21:38 5 99 15.3 1006.2 3.6 5.0 NW 1009.1 15.2 15.3 0.0
21-05-2019 21:43 5 99 15.3 1006.2 2.5 3.6 NW 1009.1 15.2 15.3 0.0
21-05-2019 21:48 5 99 15.2 1006.3 3.6 5.0 W 1009.2 15.1 15.2 0.0
21-05-2019 21:53 5 99 15.2 1006.3 1.1 2.5 SW 1009.2 15.1 15.2 0.0
21-05-2019 21:58 5 99 15.2 1006.3 2.5 3.6 W 1009.2 15.1 15.2 0.0
21-05-2019 22:03 5 99 15.3 1006.2 3.6 6.1 W 1009.1 15.2 15.3 0.0
21-05-2019 22:08 5 99 15.3 1006.1 3.6 6.1 W 1009.0 15.2 15.3 0.0
21-05-2019 22:13 5 99 15.3 1006.0 3.6 5.0 W 1008.9 15.2 15.3 0.0
21-05-2019 22:18 5 99 15.3 1006.2 3.6 5.0 W 1009.1 15.2 15.3 0.0
21-05-2019 22:23 5 99 15.4 1006.2 3.6 5.0 W 1009.1 15.3 15.4 0.0
21-05-2019 22:28 5 99 15.4 1006.2 3.6 6.1 W 1009.1 15.3 15.4 0.0
21-05-2019 22:33 5 99 15.4 1006.1 3.6 6.1 SW 1009.0 15.3 15.4 0.0
21-05-2019 22:38 5 99 15.3 1006.1 5.0 7.2 W 1009.0 15.2 15.3 0.0
21-05-2019 22:43 5 99 15.4 1006.1 2.5 5.0 W 1009.0 15.3 15.4 0.0
21-05-2019 22:48 5 99 15.5 1006.2 3.6 5.0 W 1009.1 15.4 15.5 0.0
21-05-2019 22:53 5 99 15.5 1006.3 3.6 5.0 W 1009.2 15.4 15.5 0.0
21-05-2019 22:58 5 99 15.5 1006.2 3.6 6.1 W 1009.1 15.4 15.5 0.0
21-05-2019 23:03 5 99 15.6 1006.2 2.5 3.6 SW 1009.1 15.5 15.6 0.0
21-05-2019 23:08 5 99 15.6 1006.2 3.6 6.1 W 1009.1 15.5 15.6 0.0
21-05-2019 23:13 5 99 15.6 1006.2 3.6 6.1 W 1009.1 15.5 15.6 0.0
21-05-2019 23:18 5 99 15.7 1006.2 2.5 5.0 NW 1009.1 15.6 15.7 0.0
21-05-2019 23:23 5 99 15.7 1006.3 2.5 3.6 SW 1009.2 15.6 15.7 0.0
21-05-2019 23:28 5 99 15.7 1006.3 2.5 5.0 SW 1009.2 15.6 15.7 0.0
21-05-2019 23:33 5 99 15.7 1006.3 0.0 1.1 SW 1009.2 15.6 15.7 0.0
21-05-2019 23:38 5 99 15.7 1006.2 2.5 3.6 SW 1009.1 15.6 15.7 0.0
21-05-2019 23:43 5 99 15.7 1006.3 1.1 2.5 W 1009.2 15.6 15.7 0.0
21-05-2019 23:48 5 99 15.7 1006.4 5.0 6.1 W 1009.3 15.6 15.7 0.0
21-05-2019 23:53 5 99 15.8 1006.4 5.0 7.2 W 1009.3 15.7 15.8 0.0
21-05-2019 23:58 5 99 15.8 1006.3 6.1 7.2 NW 1009.2 15.7 15.8 0.0

                                                                               Tabelle: 08 : 00 UHR

STATIONHÖHELUFTD.TEMP.T-MinT-MaxU%RR1RR12SSSDDFFFXWetter+WolkenBöen
UFS TW Ems 0 ------ --- --- --- --- ---- --- --- -- --- --- --- ---
UFS Deutsche Bucht 0 1009.2 11.4 11.1 12.9 100 ---- --- --- -- 36 --- --- ---
Helgoland 4 1008.5 11.5 11.2 13.6 99 0.0 0 --- -- --- --- Nebel ---
List/Sylt 26 1007.7 13.0 12.6 16.4 94 0.0 0 0 N 28 36 Dunst oder flacher Nebel ---
Schleswig 43 1006.8 14.2 13.5 20.6 92 0.0 0 0 N 14 27 bedeckt ---
Leuchtturm Kiel 5 1005.8 13.4 13.1 18.3 95 ---- --- --- N 32 37 --- ---
Kiel 27 1005.9 14.2 13.8 18.8 91 0.0 0 --- NW 17 25 leichter Regen ---
Fehmarn 3 1005.6 12.7 12.4 16.3 94 0.0 0 --- N 13 21 --- ---
Arkona 42 1005.0 11.1 9.7 11.6 98 0.0 6 --- SO 5 13 Dunst oder flacher Nebel ---
Norderney 11 1009.5 11.2 10.7 12.4 100 0.0 0 --- NW 34 41 Nebel ---
Leuchtt. Alte Weser 32 1008.0 11.6 11.6 13.5 --- ---- --- --- N 32 --- --- ---
Cuxhaven 5 1007.4 14.1 13.8 15.7 95 0.0 0 --- NW 19 30 --- ---
Hamburg-Flh. 11 1005.6 15.3 14.6 20.4 89 0.0 7 0 N 12 21 Dunst oder flacher Nebel ---
Schwerin 59 1005.0 13.9 13.2 17.5 92 0.0 1 --- N 7 15 Dunst oder flacher Nebel ---
Rostock 4 1004.8 11.1 11.0 14.4 99 0.0 5 --- NW 5 11 Nebel ---
Greifswald 2 1004.8 12.6 11.7 14.6 99 0.0 9 0 NW 6 11 Nebel ---
Emden 0 1009.5 11.5 11.4 14.2 99 0.0 0 --- NW 22 30 Dunst oder flacher Nebel ---
Bremen-Flh. 5 1006.9 14.1 13.2 20.6 97 0.5 3 0 NW 23 31 Regenschauer ---
Lüchow 17 1004.9 15.5 14.7 19.5 91 0.0 0 --- NO 5 9 Dunst oder flacher Nebel ---
Marnitz 81 1004.7 14.6 14.2 18.8 94 0.0 3 --- NO 7 11 Dunst oder flacher Nebel ---
Waren 70 1004.4 13.7 13.2 16.3 96 0.0 2 --- NW 2 10 Nebel ---
Neuruppin 38 1004.4 14.2 13.6 16.5 95 0.0 0 --- O 7 18 Nebel ---
Angermünde 56 1004.5 12.7 11.6 16.4 96 0.0 0 0 NO 2 5 Nebel ---
Münster/Osnabr.-Flh. 48 1008.6 13.1 13.0 19.3 90 0.0 1 0 NW 19 35 leichter Regen ---
Hannover-Flh. 59 1005.2 14.7 14.5 20.6 97 ---- 3 0 N 18 30 leichter Regen ---
Magdeburg 76 1004.0 14.7 13.4 16.8 94 0.0 6 --- NO 6 14 Dunst oder flacher Nebel ---
Potsdam 81 1003.8 14.1 12.7 17.1 96 0.0 0 0 O 11 18 heiter ---
Berlin-Tegel 37 1004.0 14.8 12.7 17.7 87 0.0 0 0 O 6 13 heiter ---
Berlin-Tempelhof 48 1004.0 15.5 11.4 18.2 85 0.0 --- --- O 9 14 --- ---
Berlin-Dahlem 51 1003.8 14.1 11.3 17.8 --- ---- 2 0 SO 7 --- heiter ---
Lindenberg 91 1003.8 15.5 12.3 17.2 82 0.0 0 0 O 6 18 heiter ---
Düsseldorf-Flh. 45 1010.3 12.2 11.9 15.5 96 0.0 3 0 NW 22 35 Regen ---
Essen 150 1009.7 11.7 11.7 14.9 99 0.0 1 --- NW 18 37 Nebel ---
Kahler Asten 839 ------ 9.0 9.0 10.8 98 1.4 65 --- NW 38 59 leichter Regen Windböen
Bad Lippspringe 157 1006.5 13.2 13.2 14.8 95 1.6 61 --- NW 13 23 Regen ---
Fritzlar 174 1004.9 13.9 13.3 15.5 88 ---- 32 0 NW 25 --- leichter Regen ---
Brocken 1142 ------ 7.8 7.7 10.2 100 ---- 55 0 NO 24 44 Nebel ---
Leipzig-Flh. 142 1003.4 11.1 10.1 18.0 100 0.0 0 0 NO 7 13 Nebel ---
Dresden-Flh. 227 1003.3 13.7 11.2 15.6 86 0.0 0 0 SO 18 23 heiter ---
Cottbus 69 1003.7 14.8 9.3 17.3 82 0.0 0 --- -- --- ---   ---
Görlitz 238 1003.3 15.3 7.7 17.2 77 0.0 0 --- SW 3 8 --- ---
Aachen 231 1012.0 9.5 9.5 12.1 100 0.0 1 --- W 26 37 Nebel ---
Nürburg 485 1010.7 9.2 9.1 11.1 99 0.7 1 --- NW 17 31 Regen ---
Köln/Bonn-Flh. 92 1010.0 11.5 11.2 14.5 97 0.4 5 0 NW 28 46 Regen ---
Gießen/Wettenberg 203 1005.4 13.3 12.3 14.7 91 0.0 15 --- W 18 40 Regen ---
Wasserkuppe 921 ------ 9.8 9.3 10.0 99 1.5 37 --- NW 17 41 Nebel ---
Meiningen 450 1002.5 12.9 12.1 13.1 96 0.1 15 --- NW 13 19 leichter Regen ---
Erfurt 316 1002.8 13.3 13.0 14.0 97 0.0 15 0 N 15 26 Nebel ---
Gera 311 1002.6 13.5 12.0 14.7 94 0.0 3 --- NO 8 15 Nebel ---
Fichtelberg 1213 ------ 7.3 6.6 7.9 100 ---- --- --- O 16 25   ---
Trier 265 1011.2 11.6 11.5 14.6 84 0.0 0 --- W 10 28 --- ---
Hahn-Flh. 497 1009.7 9.6 9.6 11.7 99 3.4 3 --- W 17 34 Regen ---
Frankfurt/M-Flh. 112 1006.4 12.2 12.1 15.0 91 1.4 5 0 W 24 40 leichter Regen ---
OF-Wetterpark 119 1005.5 12.2 11.9 15.4 91 2.6 23 --- W 19 31 Regen ---
Würzburg 268 1004.0 12.1 12.1 13.9 92 0.8 13 --- NW 18 46 Regen ---
Bamberg 239 1002.8 12.7 12.7 13.8 94 2.7 10 --- W 16 30 kräftiger Regen ---
Hof 567 1002.1 12.3 11.6 13.9 96 0.0 17 --- SO 10 19 Dunst oder flacher Nebel ---
Weiden 438 1002.1 12.7 11.7 12.8 98 1.5 18 --- SW 5 9 leichter Regen ---
Saarbrücken-Flh. 320 1010.6 11.2 11.0 14.2 89 0.0 0 0 W 21 37 leichter Regen ---
Karlsruhe-Rheinst. 116 1009.5 11.7 11.7 15.6 98 1.1 9 --- SW 22 30 leichter Regen ---
Mannheim 96 1007.8 12.7 12.5 15.4 95 4.5 12 --- W 14 25 leichter Regen ---
Stuttgart-Flh. 371 1008.5 11.1 11.1 13.8 93 1.0 14 --- SW 18 31 leichter Regen ---
Öhringen 276 1005.9 11.4 11.4 13.8 97 3.1 21 --- W 29 49 Regen ---
Nürnberg-Flh. 314 1003.3 12.7 12.3 13.1 90 0.1 16 0 W 25 41 leichter Regen ---
Regensburg 366 1003.1 12.5 12.2 13.9 96 0.0 7 --- W 16 28 leichter Regen ---
Straubing 351 1003.2 12.5 12.2 13.4 95 0.9 25 --- W 16 28 Regen ---
Großer Arber 1436 ------ 6.4 5.2 6.8 100 0.0 5 --- SW 16 23 Nebel ---
Lahr 155 1011.2 12.5 12.4 15.9 83 0.1 3 --- SW 18 27 leichter Regen ---
Freudenstadt 797 ------ 7.9 7.9 11.0 97 2.1 15 --- W 26 41 Regen ---
Stötten 734 1007.3 8.5 8.5 10.9 100 3.3 21 --- W 39 58 Regen Windböen
Augsburg 462 1006.3 11.0 11.0 12.8 91 0.5 22 --- W 27 43 leichter Regen ---
München-Flh. 444 1005.4 11.4 11.0 12.7 93 0.6 34 0 W 36 50 leichter Regen Windböen
Fürstenzell 476 1003.2 11.2 10.1 11.3 99 0.5 14 --- SW 14 24 Regen ---
Feldberg/Schw. 1486 ------ 3.5 3.5 6.0 100 0.0 3 0 W 30 56 Nebel Windböen
Konstanz 443 1011.0 10.1 10.0 12.2 93 1.5 13 --- W 18 36 leichter Regen ---
Kempten 705 1009.8 9.1 8.9 10.3 91 1.7 31 --- W 9 34 leichter Regen ---
Oberstdorf 806 ------ 7.3 6.8 8.3 92 2.8 44 --- SO 13 20 leichter Regen ---
Zugspitze 2960 ------ -4.6 -4.6 -2.9 94 ---- --- --- NW 40 68   Sturmböen
Hohenpeißenberg 977 ------ 6.9 6.9 8.2 100 2.2 49 --- SW 36 68 leichter Regen Sturmböen

                                                                                             Tabelle: 20 : 00 UHR  

STATIONHÖHELUFTD.TEMP.T-MinT-MaxU%RR1RR12SSSDDFFFXWetter+WolkenBöen
UFS TW Ems 0 ------ --- --- --- --- ---- --- --- -- --- --- --- ---
UFS Deutsche Bucht 26 1011.5 10.9 10.7 12.2 94 ---- --- --- -- 43 --- --- ---
Helgoland 4 1011.4 11.1 11.0 13.0 94 0.0 0 --- -- --- ---   ---
List/Sylt 26 1009.5 11.6 11.6 15.0 91 0.0 0 0 NW 36 48 --- ---
Schleswig 43 1008.3 14.0 14.0 20.5 96 2.3 4 --- W 18 33 Regen ---
Leuchtturm Kiel 5 1007.4 17.0 13.3 17.5 93 ---- --- --- W 19 21 --- ---
Kiel 27 1007.8 16.1 14.1 17.5 96 0.0 6 --- W 10 18 Regen ---
Fehmarn 3 1007.3 13.5 12.5 15.5 94 0.0 0 --- SW 14 18 Regen ---
Arkona 42 1007.6 11.6 10.2 15.8 99 0.0 0 --- NW 6 19 Nebel ---
Norderney 11 1012.8 11.4 11.2 13.1 94 0.0 0 --- NW 36 45 Dunst oder flacher Nebel ---
Leuchtt. Alte Weser 32 1011.2 10.8 10.5 12.2 100 ---- --- --- NW 40 --- --- ---
Cuxhaven 5 1010.8 11.9 11.9 14.5 96 0.0 0 --- W 26 44 --- ---
Hamburg-Flh 11 1009.2 13.3 13.3 17.0 96 1.9 7 0 W 19 38 Regen ---
Schwerin 59 1007.9 15.8 13.9 16.7 90 0.0 0 --- W 10 18 --- ---
Rostock 4 1007.5 14.5 11.0 14.6 95 0.0 1 --- SW 6 18 Dunst oder flacher Nebel ---
Greifswald 2 1007.2 16.7 12.5 21.8 87 0.0 0 0 N 11 18 bewölkt ---
Emden 0 1013.2 12.1 11.4 14.4 89 0.0 0 --- W 16 39 --- ---
Bremen-Flh. 5 1011.5 13.3 13.3 14.6 89 0.0 4 0 NW 23 36 bedeckt ---
Lüchow 17 1008.9 15.6 15.1 20.9 87 0.0 0 --- W 9 32 --- ---
Marnitz 81 1007.6 16.8 14.4 21.9 82 0.0 0 --- NW 12 19 --- ---
Waren 70 1007.2 16.7 13.6 22.4 81 0.0 0 --- W 12 21 --- ---
Neuruppin 38 1006.6 20.4 14.2 25.0 69 0.0 0 --- NW 14 26 --- ---
Angermünde 56 1006.1 20.0 12.7 24.6 72 0.0 0 0 O 17 28 --- ---
Münster/Osnabr.-Flh. 48 1013.4 14.5 12.9 16.5 81 0.0 0 0 W 23 38 stark bewölkt ---
Hannover-Flh. 59 1010.8 14.4 13.9 15.8 86 0.0 1 0 NW 25 38 bedeckt ---
Magdeburg 76 1008.6 16.3 14.7 22.6 87 0.1 1 --- NW 10 30 Regen ---
Potsdam 81 1006.1 21.6 14.1 24.1 57 0.0 0 0 NW 13 26 bewölkt ---
Berlin-Tegel 37 1006.1 20.3 14.7 24.1 61 0.0 0 0 NW 12 23 heiter ---
Berlin-Tempelhof 48 1006.0 20.9 15.5 24.4 85 0.0 0 --- NW 14 22 --- ---
Berlin-Dahlem 51 1006.1 19.6 14.1 23.6 --- ---- 1 0 NW 11 --- heiter ---
Lindenberg 91 1005.5 19.5 15.7 23.9 65 0.0 0 0 O 15 28 Gewitter ---
Düsseldorf-Flh. 45 1015.8 12.1 11.6 12.6 95 0.9 6 0 W 13 22 leichter Regen ---
Essen 150 1015.5 11.6 11.3 12.0 95 0.9 6 --- W 5 20 leichter Regen ---
Kahler Asten 839 ------ 8.8 8.6 9.6 98 0.0 4 --- NW 36 62 Nebel Windböen
Bad Lippspringe 157 1012.4 13.8 12.8 14.0 93 0.5 3 --- W 11 19 leichter Regen ---
Fritzlar 174 ------ --- --- --- --- ---- --- --- -- --- --- --- ---
Brocken 1142 ------ 7.8 7.7 10.7 100 ---- 2 0 NW 37 53 leichter Regen Windböen
Leipzig-Flh. 142 1007.7 16.2 11.0 22.0 83 0.0 0 0 NW 19 39 bewölkt ---
Dresden-Flh. 227 1005.5 20.0 13.6 21.7 58 0.0 0 0 NW 13 28 bewölkt ---
Cottbus 69 1004.8 21.8 14.8 24.8 52 0.0 0 --- NW 8 24 --- ---
Görlitz 238 1004.7 18.3 15.4 23.0 69 0.0 0 --- W 11 23 Regen ---
Aachen 231 1016.4 13.1 9.3 13.5 80 0.0 6 --- W 14 27 --- ---
Nürburg 485 1016.4 9.8 9.0 10.1 97 0.3 4 --- W 11 24 Regen ---
Köln/Bonn-Flh. 92 1015.9 12.0 11.1 12.1 93 0.3 10 0 NW 17 31 leichter Regen ---
Gießen/Wettenberg 203 1012.9 13.4 13.1 15.6 88 0.0 3 --- W 17 23 --- ---
Wasserkuppe 921 ------ 8.7 8.7 10.2 99 0.0 19 --- NW 32 58 Nebel Windböen
Meiningen 450 1010.9 12.0 12.0 17.0 91 0.0 2 --- NW 23 40 --- ---
Erfurt 316 1009.9 13.6 12.8 19.2 87 0.0 0 0 NW 26 46 bedeckt ---
Gera 311 1008.0 14.6 12.8 20.6 99 12.1 12 --- NW 22 45 kräftiger Regen ---
Fichtelberg 1213 ------ 11.0 7.3 14.1 91 ---- --- --- N 12 19   ---
Trier 265 1016.6 11.6 11.0 12.3 94 0.2 4 --- N 3 19 leichter Regen ---
Hahn-Flh. 497 1015.8 10.1 9.5 10.4 96 0.3 25 --- W 17 28 Regen ---
Frankfurt/M-Flh. 112 1014.3 12.9 12.2 15.0 85 0.0 1 0 W 21 35 Regenschauer ---
OF-Wetterpark 119 1013.3 13.6 12.1 15.7 81 0.0 5 --- W 14 23 --- ---
Würzburg 268 1012.2 12.9 12.0 15.8 90 0.0 4 --- NW 11 30 leichter Regen ---
Bamberg 239 1010.1 13.8 12.7 16.7 93 1.4 16 --- NW 12 23 Regen ---
Hof 567 1008.2 13.6 12.2 17.0 90 0.0 0 --- NW 19 34 --- ---
Weiden 438 1008.5 13.6 12.5 14.7 94 0.9 13 --- W 9 17 leichter Regen ---
Saarbrücken-Flh. 320 1016.3 11.6 10.9 12.8 94 0.0 9 0 NW 14 21 leichter Regen ---
Karlsruhe-Rheinst. 116 ------ --- --- --- --- ---- --- --- -- --- --- --- ---
Mannheim 96 1014.6 13.1 12.4 13.6 85 0.0 20 --- NW 13 30 Regen ---
Stuttgart-Flh. 371 1014.2 11.8 10.9 12.7 94 0.5 21 --- W 16 28 leichter Regen ---
Öhringen 276 1013.4 11.5 11.3 12.4 94 0.0 20 --- W 16 26 --- ---
Nürnberg-Flh. 314 1010.2 13.5 12.5 16.1 94 0.2 9 0 W 19 31 leichter Regen ---
Regensburg 366 1008.5 14.3 12.3 17.6 90 0.0 2 --- W 16 27 --- ---
Straubing 351 1009.0 13.6 12.3 14.5 91 0.2 2 --- SW 16 24 Regen ---
Großer Arber 1436 ------ 7.0 6.4 8.0 100 0.3 12 --- W 19 29 Niederschlag ---
Lahr 155 1016.3 13.7 11.8 14.0 94 0.1 23 --- SW 6 14 leichter Regen ---
Freudenstadt 797 ------ 9.3 7.9 9.6 93 0.0 8 --- W 19 33 leichter Regen ---
Stötten 734 1013.5 8.8 8.3 9.4 100 5.6 71 --- W 34 48 Regen ---
Augsburg 462 1012.3 11.1 10.8 11.8 93 0.0 13 --- W 22 37 leichter Regen ---
München-Flh. 444 1011.3 11.7 11.2 12.4 93 0.5 8 0 W 27 39 leichter Regen ---
Fürstenzell 476 1009.8 11.3 10.9 12.0 97 0.2 11 --- SW 18 31 Regen ---
Feldberg/Schw. 1486 ------ 4.9 3.4 5.0 100 0.8 15 0 NW 30 47 Regen ---
Konstanz 443 1015.5 11.8 10.1 11.9 94 0.6 14 --- W 8 17 Regen ---
Kempten 705 1014.7 9.8 8.8 10.2 94 0.7 18 --- SW 8 29 leichter Regen ---
Oberstdorf 806 ------ 8.3 7.2 9.8 93 1.0 25 --- SO 8 13 leichter Regen ---
Zugspitze 2960 ------ -4.2 -4.7 -2.8 96 ---- --- --- NW 27 59 Schneeregen Windböen
Hohenpeißenberg 977 ------ 7.7 6.7 8.0 100 2.0 20 --- SW 33 56 leichter Regen Windböen

  

  • Temperatur
  • Wetterzustand
  • Windrichtung und -geschwindigkeit
  • Luftdruck
  • relative Luftfeuchtigkeit
  • Sichtweite
  • Gesamtbedeckungsgrad
  • Niederschlag
  • Sonnenscheindauer

 Höhe:     m über NN
Luftd.:   auf Meereshöhe reduzierter Luftdruck in hPa
TEMP.:   Lufttemperatur in Grad Celsius
T-MIN:   Minimumtemperatur der Luft in 2m Höhe in Grad Celsius, von 18 UTC Vortag bis 06 UTC heute
T-MAX:  Maximumtemperatur der Luft in 2m Höhe in Grad Celsius, von 18 UTC Vortag bis 06 UTC heute
RR1:     Niederschlagsmenge, einstündig, mm ist gleich Liter pro
RR12:   Niederschlagsmenge, 12 stündig, 18 UTC Vortag bis 06 UTC heute in mm ist gleich Liter pro
SSS:     Gesamtschneehöhe
DD:      Windrichtung
FF:       Windgeschwindigkeit letztes 10-Minutenmittel in km/h
FX:       höchste Windspitze während der letzten Stunde in km/h
---:      Wert nicht vorhanden

 

2009-2019

Unwetterwarnungen

 

  Radarbild           

aktueller Radarfilm Deutschland

  Europa-Meteoalarm